sensor_id;sensor_type;location;lat;lon;timestamp;P1;durP1;ratioP1;P2;durP2;ratioP2
28653;SDS011;24320;56.980;24.336;2023-06-22T00:21:54;13.80;;;8.80;;
28653;SDS011;24320;56.980;24.336;2023-06-22T00:24:24;12.43;;;8.45;;
28653;SDS011;24320;56.980;24.336;2023-06-22T00:26:51;12.25;;;8.13;;
28653;SDS011;24320;56.980;24.336;2023-06-22T00:29:18;16.45;;;9.48;;
28653;SDS011;24320;56.980;24.336;2023-06-22T00:31:45;13.50;;;8.60;;
28653;SDS011;24320;56.980;24.336;2023-06-22T00:34:12;13.20;;;9.40;;
28653;SDS011;24320;56.980;24.336;2023-06-22T00:36:39;14.85;;;8.98;;
28653;SDS011;24320;56.980;24.336;2023-06-22T00:39:07;12.25;;;8.07;;
28653;SDS011;24320;56.980;24.336;2023-06-22T00:41:34;13.82;;;9.25;;
28653;SDS011;24320;56.980;24.336;2023-06-22T00:44:01;12.65;;;8.35;;
28653;SDS011;24320;56.980;24.336;2023-06-22T00:46:28;13.20;;;8.30;;
28653;SDS011;24320;56.980;24.336;2023-06-22T00:48:55;12.75;;;8.95;;
28653;SDS011;24320;56.980;24.336;2023-06-22T00:51:23;15.18;;;8.60;;
28653;SDS011;24320;56.980;24.336;2023-06-22T00:53:51;15.35;;;8.90;;
28653;SDS011;24320;56.980;24.336;2023-06-22T00:56:19;17.10;;;8.38;;
28653;SDS011;24320;56.980;24.336;2023-06-22T00:58:51;14.27;;;8.85;;
28653;SDS011;24320;56.980;24.336;2023-06-22T01:01:23;15.30;;;8.75;;
28653;SDS011;24320;56.980;24.336;2023-06-22T01:03:50;12.60;;;8.45;;
28653;SDS011;24320;56.980;24.336;2023-06-22T01:06:20;12.60;;;8.77;;
28653;SDS011;24320;56.980;24.336;2023-06-22T01:09:19;12.48;;;8.27;;
28653;SDS011;24320;56.980;24.336;2023-06-22T01:11:54;15.13;;;8.75;;
28653;SDS011;24320;56.980;24.336;2023-06-22T01:14:32;10.68;;;8.05;;
28653;SDS011;24320;56.980;24.336;2023-06-22T01:17:06;14.38;;;8.90;;
28653;SDS011;24320;56.980;24.336;2023-06-22T05:29:07;22.52;;;13.82;;
28653;SDS011;24320;56.980;24.336;2023-06-22T05:31:34;20.67;;;13.57;;
28653;SDS011;24320;56.980;24.336;2023-06-22T05:34:01;17.90;;;12.77;;
28653;SDS011;24320;56.980;24.336;2023-06-22T05:36:28;28.73;;;15.30;;
28653;SDS011;24320;56.980;24.336;2023-06-22T05:38:56;21.27;;;14.80;;
28653;SDS011;24320;56.980;24.336;2023-06-22T05:41:24;22.88;;;15.00;;
28653;SDS011;24320;56.980;24.336;2023-06-22T05:43:51;22.23;;;13.82;;
28653;SDS011;24320;56.980;24.336;2023-06-22T05:46:19;26.17;;;14.20;;
28653;SDS011;24320;56.980;24.336;2023-06-22T05:48:46;25.55;;;14.93;;
28653;SDS011;24320;56.980;24.336;2023-06-22T05:51:13;25.40;;;15.38;;
28653;SDS011;24320;56.980;24.336;2023-06-22T05:53:40;21.83;;;14.57;;
28653;SDS011;24320;56.980;24.336;2023-06-22T05:56:07;24.98;;;15.05;;
28653;SDS011;24320;56.980;24.336;2023-06-22T05:58:35;19.02;;;13.57;;
28653;SDS011;24320;56.980;24.336;2023-06-22T06:01:02;21.92;;;15.55;;
28653;SDS011;24320;56.980;24.336;2023-06-22T06:03:29;25.02;;;15.45;;
28653;SDS011;24320;56.980;24.336;2023-06-22T06:05:56;30.38;;;16.77;;
28653;SDS011;24320;56.980;24.336;2023-06-22T06:08:23;29.75;;;17.50;;
28653;SDS011;24320;56.980;24.336;2023-06-22T06:10:55;25.00;;;16.70;;
28653;SDS011;24320;56.980;24.336;2023-06-22T06:13:23;23.25;;;15.68;;
28653;SDS011;24320;56.980;24.336;2023-06-22T06:15:50;27.23;;;15.85;;
28653;SDS011;24320;56.980;24.336;2023-06-22T06:18:17;23.98;;;15.88;;
28653;SDS011;24320;56.980;24.336;2023-06-22T06:20:44;27.85;;;16.08;;
28653;SDS011;24320;56.980;24.336;2023-06-22T06:23:12;25.25;;;16.63;;
28653;SDS011;24320;56.980;24.336;2023-06-22T06:25:39;26.27;;;16.50;;
28653;SDS011;24320;56.980;24.336;2023-06-22T06:28:06;24.20;;;16.15;;
28653;SDS011;24320;56.980;24.336;2023-06-22T06:30:34;23.92;;;16.92;;
28653;SDS011;24320;56.980;24.336;2023-06-22T06:33:03;25.88;;;16.73;;
28653;SDS011;24320;56.980;24.336;2023-06-22T06:35:35;27.83;;;17.33;;
28653;SDS011;24320;56.980;24.336;2023-06-22T06:38:04;32.60;;;18.60;;
28653;SDS011;24320;56.980;24.336;2023-06-22T06:40:31;25.45;;;17.15;;
28653;SDS011;24320;56.980;24.336;2023-06-22T06:42:58;24.75;;;17.70;;
28653;SDS011;24320;56.980;24.336;2023-06-22T06:45:25;27.02;;;16.83;;
28653;SDS011;24320;56.980;24.336;2023-06-22T06:47:54;25.33;;;16.05;;
28653;SDS011;24320;56.980;24.336;2023-06-22T06:50:22;20.73;;;14.05;;
28653;SDS011;24320;56.980;24.336;2023-06-22T06:52:49;26.75;;;16.08;;
28653;SDS011;24320;56.980;24.336;2023-06-22T06:55:18;24.45;;;14.10;;
28653;SDS011;24320;56.980;24.336;2023-06-22T06:57:46;17.83;;;13.32;;
28653;SDS011;24320;56.980;24.336;2023-06-22T07:00:14;18.38;;;13.23;;
28653;SDS011;24320;56.980;24.336;2023-06-22T07:02:42;20.02;;;14.13;;
28653;SDS011;24320;56.980;24.336;2023-06-22T07:05:11;19.50;;;13.48;;
28653;SDS011;24320;56.980;24.336;2023-06-22T07:07:39;17.75;;;12.98;;
28653;SDS011;24320;56.980;24.336;2023-06-22T07:10:08;25.00;;;13.60;;
28653;SDS011;24320;56.980;24.336;2023-06-22T07:12:35;22.60;;;14.10;;
28653;SDS011;24320;56.980;24.336;2023-06-22T07:15:09;22.50;;;15.35;;
28653;SDS011;24320;56.980;24.336;2023-06-22T07:17:36;24.13;;;15.15;;
28653;SDS011;24320;56.980;24.336;2023-06-22T07:20:06;20.23;;;13.63;;
28653;SDS011;24320;56.980;24.336;2023-06-22T07:22:39;22.02;;;13.80;;
28653;SDS011;24320;56.980;24.336;2023-06-22T07:25:07;20.23;;;13.85;;
28653;SDS011;24320;56.980;24.336;2023-06-22T07:27:45;18.92;;;12.85;;
28653;SDS011;24320;56.980;24.336;2023-06-22T07:32:49;19.98;;;13.98;;
28653;SDS011;24320;56.980;24.336;2023-06-22T07:35:16;23.33;;;13.63;;
28653;SDS011;24320;56.980;24.336;2023-06-22T07:37:43;20.58;;;14.70;;
28653;SDS011;24320;56.980;24.336;2023-06-22T07:40:11;19.50;;;14.13;;
28653;SDS011;24320;56.980;24.336;2023-06-22T07:42:39;22.10;;;13.95;;
28653;SDS011;24320;56.980;24.336;2023-06-22T07:45:06;19.38;;;13.98;;
28653;SDS011;24320;56.980;24.336;2023-06-22T07:47:36;18.83;;;12.75;;
28653;SDS011;24320;56.980;24.336;2023-06-22T07:50:04;17.63;;;12.70;;
28653;SDS011;24320;56.980;24.336;2023-06-22T07:52:32;29.45;;;13.20;;
28653;SDS011;24320;56.980;24.336;2023-06-22T07:55:00;20.83;;;13.63;;
28653;SDS011;24320;56.980;24.336;2023-06-22T07:57:28;17.65;;;12.73;;
28653;SDS011;24320;56.980;24.336;2023-06-22T08:00:04;19.38;;;12.55;;
28653;SDS011;24320;56.980;24.336;2023-06-22T08:02:45;17.08;;;12.20;;
28653;SDS011;24320;56.980;24.336;2023-06-22T08:05:14;17.15;;;12.68;;
28653;SDS011;24320;56.980;24.336;2023-06-22T08:07:44;17.17;;;12.00;;
28653;SDS011;24320;56.980;24.336;2023-06-22T08:10:14;18.05;;;12.18;;
28653;SDS011;24320;56.980;24.336;2023-06-22T08:12:41;20.88;;;12.57;;
28653;SDS011;24320;56.980;24.336;2023-06-22T08:15:09;14.90;;;11.43;;
28653;SDS011;24320;56.980;24.336;2023-06-22T08:17:37;19.05;;;12.80;;
28653;SDS011;24320;56.980;24.336;2023-06-22T08:20:05;18.02;;;12.93;;
28653;SDS011;24320;56.980;24.336;2023-06-22T08:22:36;20.10;;;13.60;;
28653;SDS011;24320;56.980;24.336;2023-06-22T08:25:03;24.35;;;14.10;;
28653;SDS011;24320;56.980;24.336;2023-06-22T08:27:31;22.45;;;15.18;;
28653;SDS011;24320;56.980;24.336;2023-06-22T08:29:58;21.05;;;14.93;;
28653;SDS011;24320;56.980;24.336;2023-06-22T08:32:29;25.10;;;16.40;;
28653;SDS011;24320;56.980;24.336;2023-06-22T08:34:59;25.38;;;17.08;;
28653;SDS011;24320;56.980;24.336;2023-06-22T08:37:26;22.25;;;15.57;;
28653;SDS011;24320;56.980;24.336;2023-06-22T08:40:04;20.90;;;14.88;;
28653;SDS011;24320;56.980;24.336;2023-06-22T08:42:37;22.88;;;14.73;;
28653;SDS011;24320;56.980;24.336;2023-06-22T08:45:06;22.10;;;15.52;;
28653;SDS011;24320;56.980;24.336;2023-06-22T08:47:34;21.65;;;15.50;;
28653;SDS011;24320;56.980;24.336;2023-06-22T08:50:02;22.67;;;16.05;;
28653;SDS011;24320;56.980;24.336;2023-06-22T08:52:30;24.55;;;17.35;;
28653;SDS011;24320;56.980;24.336;2023-06-22T08:54:57;25.05;;;16.67;;
28653;SDS011;24320;56.980;24.336;2023-06-22T08:57:27;25.30;;;16.88;;
28653;SDS011;24320;56.980;24.336;2023-06-22T08:59:54;26.08;;;16.55;;
28653;SDS011;24320;56.980;24.336;2023-06-22T09:02:26;28.02;;;18.42;;
28653;SDS011;24320;56.980;24.336;2023-06-22T09:04:57;24.80;;;17.17;;
28653;SDS011;24320;56.980;24.336;2023-06-22T09:07:25;28.35;;;17.25;;
28653;SDS011;24320;56.980;24.336;2023-06-22T09:09:52;25.73;;;17.48;;
28653;SDS011;24320;56.980;24.336;2023-06-22T09:12:20;25.25;;;17.70;;
28653;SDS011;24320;56.980;24.336;2023-06-22T09:14:51;26.52;;;17.63;;
28653;SDS011;24320;56.980;24.336;2023-06-22T09:17:18;24.80;;;17.33;;
28653;SDS011;24320;56.980;24.336;2023-06-22T09:19:45;26.67;;;17.60;;
28653;SDS011;24320;56.980;24.336;2023-06-22T09:22:14;29.33;;;19.73;;
28653;SDS011;24320;56.980;24.336;2023-06-22T09:24:41;28.20;;;18.10;;
28653;SDS011;24320;56.980;24.336;2023-06-22T09:27:08;28.15;;;17.80;;
28653;SDS011;24320;56.980;24.336;2023-06-22T09:29:35;28.55;;;18.90;;
28653;SDS011;24320;56.980;24.336;2023-06-22T09:32:02;25.55;;;18.40;;
28653;SDS011;24320;56.980;24.336;2023-06-22T09:34:30;28.08;;;18.58;;
28653;SDS011;24320;56.980;24.336;2023-06-22T09:36:58;31.08;;;18.80;;
28653;SDS011;24320;56.980;24.336;2023-06-22T09:39:27;29.65;;;18.73;;
28653;SDS011;24320;56.980;24.336;2023-06-22T09:41:54;27.48;;;18.60;;
28653;SDS011;24320;56.980;24.336;2023-06-22T09:44:21;27.95;;;18.80;;
28653;SDS011;24320;56.980;24.336;2023-06-22T09:46:48;29.33;;;18.70;;
28653;SDS011;24320;56.980;24.336;2023-06-22T09:49:15;26.65;;;18.25;;
28653;SDS011;24320;56.980;24.336;2023-06-22T09:51:42;24.40;;;17.17;;
28653;SDS011;24320;56.980;24.336;2023-06-22T09:54:09;26.08;;;17.63;;
28653;SDS011;24320;56.980;24.336;2023-06-22T09:56:36;28.45;;;19.38;;
28653;SDS011;24320;56.980;24.336;2023-06-22T09:59:04;29.25;;;19.35;;
28653;SDS011;24320;56.980;24.336;2023-06-22T10:01:44;29.77;;;18.48;;
28653;SDS011;24320;56.980;24.336;2023-06-22T11:06:22;31.00;;;19.38;;
28653;SDS011;24320;56.980;24.336;2023-06-22T11:08:49;29.30;;;19.02;;
28653;SDS011;24320;56.980;24.336;2023-06-22T11:11:36;27.20;;;18.90;;
28653;SDS011;24320;56.980;24.336;2023-06-22T11:14:03;32.78;;;20.27;;
28653;SDS011;24320;56.980;24.336;2023-06-22T11:16:30;36.58;;;20.00;;
28653;SDS011;24320;56.980;24.336;2023-06-22T11:18:57;31.73;;;19.38;;
28653;SDS011;24320;56.980;24.336;2023-06-22T11:21:24;31.65;;;19.90;;
28653;SDS011;24320;56.980;24.336;2023-06-22T11:23:51;31.23;;;19.88;;
28653;SDS011;24320;56.980;24.336;2023-06-22T11:26:18;30.90;;;19.50;;
28653;SDS011;24320;56.980;24.336;2023-06-22T11:28:45;30.85;;;19.35;;
28653;SDS011;24320;56.980;24.336;2023-06-22T11:31:12;26.48;;;18.95;;
28653;SDS011;24320;56.980;24.336;2023-06-22T11:33:43;27.30;;;17.92;;
28653;SDS011;24320;56.980;24.336;2023-06-22T11:36:12;33.33;;;18.67;;
28653;SDS011;24320;56.980;24.336;2023-06-22T11:38:40;26.02;;;17.95;;
28653;SDS011;24320;56.980;24.336;2023-06-22T11:41:08;27.40;;;17.75;;
28653;SDS011;24320;56.980;24.336;2023-06-22T11:43:35;29.65;;;18.23;;
28653;SDS011;24320;56.980;24.336;2023-06-22T11:46:03;26.48;;;17.92;;
28653;SDS011;24320;56.980;24.336;2023-06-22T11:48:31;26.08;;;18.05;;
28653;SDS011;24320;56.980;24.336;2023-06-22T11:50:58;26.13;;;17.85;;
28653;SDS011;24320;56.980;24.336;2023-06-22T11:53:26;25.88;;;17.80;;
28653;SDS011;24320;56.980;24.336;2023-06-22T11:55:53;27.35;;;17.77;;
28653;SDS011;24320;56.980;24.336;2023-06-22T11:58:21;28.52;;;18.02;;
28653;SDS011;24320;56.980;24.336;2023-06-22T12:00:49;26.55;;;17.67;;
28653;SDS011;24320;56.980;24.336;2023-06-22T12:03:18;27.05;;;17.45;;
28653;SDS011;24320;56.980;24.336;2023-06-22T12:05:46;27.20;;;17.48;;
28653;SDS011;24320;56.980;24.336;2023-06-22T12:08:13;23.73;;;16.75;;
28653;SDS011;24320;56.980;24.336;2023-06-22T12:10:40;29.38;;;17.92;;
28653;SDS011;24320;56.980;24.336;2023-06-22T12:13:07;23.85;;;16.17;;
28653;SDS011;24320;56.980;24.336;2023-06-22T12:15:34;25.17;;;16.58;;
28653;SDS011;24320;56.980;24.336;2023-06-22T12:18:01;25.25;;;15.40;;
28653;SDS011;24320;56.980;24.336;2023-06-22T12:20:29;24.60;;;16.25;;
28653;SDS011;24320;56.980;24.336;2023-06-22T12:22:57;26.83;;;15.25;;
28653;SDS011;24320;56.980;24.336;2023-06-22T12:25:24;22.60;;;14.90;;
28653;SDS011;24320;56.980;24.336;2023-06-22T12:27:51;23.17;;;15.27;;
28653;SDS011;24320;56.980;24.336;2023-06-22T12:30:19;26.52;;;15.38;;
28653;SDS011;24320;56.980;24.336;2023-06-22T12:32:46;23.13;;;15.38;;
28653;SDS011;24320;56.980;24.336;2023-06-22T12:35:13;19.52;;;14.65;;
28653;SDS011;24320;56.980;24.336;2023-06-22T12:37:43;20.48;;;14.25;;
28653;SDS011;24320;56.980;24.336;2023-06-22T12:40:13;20.20;;;14.07;;
28653;SDS011;24320;56.980;24.336;2023-06-22T12:42:40;21.63;;;13.97;;
28653;SDS011;24320;56.980;24.336;2023-06-22T12:45:08;20.77;;;14.05;;
28653;SDS011;24320;56.980;24.336;2023-06-22T12:47:36;23.77;;;14.63;;
28653;SDS011;24320;56.980;24.336;2023-06-22T12:50:03;20.90;;;13.57;;
28653;SDS011;24320;56.980;24.336;2023-06-22T12:52:30;19.52;;;13.65;;
28653;SDS011;24320;56.980;24.336;2023-06-22T12:54:58;21.13;;;14.13;;
28653;SDS011;24320;56.980;24.336;2023-06-22T12:57:25;19.58;;;13.73;;
28653;SDS011;24320;56.980;24.336;2023-06-22T12:59:52;19.75;;;12.75;;
28653;SDS011;24320;56.980;24.336;2023-06-22T13:02:20;18.30;;;13.45;;
28653;SDS011;24320;56.980;24.336;2023-06-22T13:04:47;21.88;;;13.82;;
28653;SDS011;24320;56.980;24.336;2023-06-22T13:07:14;21.30;;;13.73;;
28653;SDS011;24320;56.980;24.336;2023-06-22T13:09:49;30.90;;;16.15;;
28653;SDS011;24320;56.980;24.336;2023-06-22T13:14:47;20.15;;;13.10;;
28653;SDS011;24320;56.980;24.336;2023-06-22T13:17:14;19.13;;;13.02;;
28653;SDS011;24320;56.980;24.336;2023-06-22T13:19:41;19.60;;;12.80;;
28653;SDS011;24320;56.980;24.336;2023-06-22T13:22:25;19.60;;;13.13;;
28653;SDS011;24320;56.980;24.336;2023-06-22T13:24:57;20.77;;;13.35;;
28653;SDS011;24320;56.980;24.336;2023-06-22T13:27:25;21.42;;;13.52;;
28653;SDS011;24320;56.980;24.336;2023-06-22T13:29:52;18.98;;;13.00;;
28653;SDS011;24320;56.980;24.336;2023-06-22T13:32:19;19.50;;;12.88;;
28653;SDS011;24320;56.980;24.336;2023-06-22T13:34:46;18.30;;;12.70;;
28653;SDS011;24320;56.980;24.336;2023-06-22T13:37:14;16.58;;;12.30;;
28653;SDS011;24320;56.980;24.336;2023-06-22T13:39:41;20.02;;;13.40;;
28653;SDS011;24320;56.980;24.336;2023-06-22T13:42:08;18.15;;;12.93;;
28653;SDS011;24320;56.980;24.336;2023-06-22T13:44:35;20.92;;;14.60;;
28653;SDS011;24320;56.980;24.336;2023-06-22T13:47:02;20.42;;;13.57;;
28653;SDS011;24320;56.980;24.336;2023-06-22T13:49:31;18.50;;;11.82;;
28653;SDS011;24320;56.980;24.336;2023-06-22T13:51:58;29.15;;;16.35;;
28653;SDS011;24320;56.980;24.336;2023-06-22T13:54:25;21.48;;;14.32;;
28653;SDS011;24320;56.980;24.336;2023-06-22T13:56:55;16.73;;;13.05;;
28653;SDS011;24320;56.980;24.336;2023-06-22T13:59:22;16.02;;;12.25;;
28653;SDS011;24320;56.980;24.336;2023-06-22T14:01:50;15.63;;;11.75;;
28653;SDS011;24320;56.980;24.336;2023-06-22T14:04:17;14.27;;;10.95;;
28653;SDS011;24320;56.980;24.336;2023-06-22T14:06:44;19.98;;;12.20;;
28653;SDS011;24320;56.980;24.336;2023-06-22T14:09:11;14.88;;;10.63;;
28653;SDS011;24320;56.980;24.336;2023-06-22T14:11:38;14.98;;;11.50;;
28653;SDS011;24320;56.980;24.336;2023-06-22T14:14:05;14.77;;;10.95;;
28653;SDS011;24320;56.980;24.336;2023-06-22T14:16:32;13.98;;;10.63;;
28653;SDS011;24320;56.980;24.336;2023-06-22T14:18:59;17.80;;;11.07;;
28653;SDS011;24320;56.980;24.336;2023-06-22T14:21:26;13.77;;;10.43;;
28653;SDS011;24320;56.980;24.336;2023-06-22T14:23:53;14.85;;;10.43;;
28653;SDS011;24320;56.980;24.336;2023-06-22T14:26:20;15.23;;;10.98;;
28653;SDS011;24320;56.980;24.336;2023-06-22T14:28:48;17.48;;;11.40;;
28653;SDS011;24320;56.980;24.336;2023-06-22T14:31:17;17.63;;;11.73;;
28653;SDS011;24320;56.980;24.336;2023-06-22T14:33:48;15.15;;;11.30;;
28653;SDS011;24320;56.980;24.336;2023-06-22T14:36:16;15.52;;;11.63;;
28653;SDS011;24320;56.980;24.336;2023-06-22T14:38:46;17.48;;;11.02;;
28653;SDS011;24320;56.980;24.336;2023-06-22T14:41:13;14.52;;;11.63;;
28653;SDS011;24320;56.980;24.336;2023-06-22T14:43:45;17.27;;;11.40;;
28653;SDS011;24320;56.980;24.336;2023-06-22T14:46:17;13.38;;;10.77;;
28653;SDS011;24320;56.980;24.336;2023-06-22T14:48:45;14.45;;;10.65;;
28653;SDS011;24320;56.980;24.336;2023-06-22T14:51:13;13.93;;;9.77;;
28653;SDS011;24320;56.980;24.336;2023-06-22T14:53:46;16.08;;;9.43;;
28653;SDS011;24320;56.980;24.336;2023-06-22T14:56:13;14.25;;;9.57;;
28653;SDS011;24320;56.980;24.336;2023-06-22T14:58:42;13.90;;;8.85;;
28653;SDS011;24320;56.980;24.336;2023-06-22T15:01:13;15.20;;;8.07;;
28653;SDS011;24320;56.980;24.336;2023-06-22T15:03:42;10.38;;;7.78;;
28653;SDS011;24320;56.980;24.336;2023-06-22T15:06:10;12.63;;;9.32;;
28653;SDS011;24320;56.980;24.336;2023-06-22T15:08:38;12.18;;;8.65;;
28653;SDS011;24320;56.980;24.336;2023-06-22T15:11:06;10.85;;;8.02;;
28653;SDS011;24320;56.980;24.336;2023-06-22T15:13:33;11.90;;;7.43;;
28653;SDS011;24320;56.980;24.336;2023-06-22T15:16:01;10.80;;;7.35;;
28653;SDS011;24320;56.980;24.336;2023-06-22T15:18:30;13.52;;;8.05;;
28653;SDS011;24320;56.980;24.336;2023-06-22T15:21:00;10.13;;;7.30;;
28653;SDS011;24320;56.980;24.336;2023-06-22T15:23:28;9.60;;;7.53;;
28653;SDS011;24320;56.980;24.336;2023-06-22T15:25:56;10.48;;;7.75;;
28653;SDS011;24320;56.980;24.336;2023-06-22T15:28:24;8.80;;;6.78;;
28653;SDS011;24320;56.980;24.336;2023-06-22T15:30:51;8.20;;;6.65;;
28653;SDS011;24320;56.980;24.336;2023-06-22T15:33:18;12.38;;;6.60;;
28653;SDS011;24320;56.980;24.336;2023-06-22T15:35:46;9.05;;;6.50;;
28653;SDS011;24320;56.980;24.336;2023-06-22T15:38:13;8.98;;;6.60;;
28653;SDS011;24320;56.980;24.336;2023-06-22T15:40:40;9.18;;;6.82;;
28653;SDS011;24320;56.980;24.336;2023-06-22T15:43:10;8.88;;;6.25;;
28653;SDS011;24320;56.980;24.336;2023-06-22T15:45:39;9.05;;;6.97;;
28653;SDS011;24320;56.980;24.336;2023-06-22T15:48:06;10.55;;;6.15;;
28653;SDS011;24320;56.980;24.336;2023-06-22T15:50:33;11.25;;;7.00;;
28653;SDS011;24320;56.980;24.336;2023-06-22T15:53:00;11.38;;;6.88;;
28653;SDS011;24320;56.980;24.336;2023-06-22T15:55:27;7.47;;;5.53;;
28653;SDS011;24320;56.980;24.336;2023-06-22T15:57:57;8.32;;;5.80;;
28653;SDS011;24320;56.980;24.336;2023-06-22T16:00:24;6.32;;;5.53;;
28653;SDS011;24320;56.980;24.336;2023-06-22T16:02:53;7.53;;;5.78;;
28653;SDS011;24320;56.980;24.336;2023-06-22T16:05:20;8.10;;;5.35;;
28653;SDS011;24320;56.980;24.336;2023-06-22T16:07:47;6.88;;;5.25;;
28653;SDS011;24320;56.980;24.336;2023-06-22T16:10:14;8.20;;;5.50;;
28653;SDS011;24320;56.980;24.336;2023-06-22T16:12:43;6.57;;;5.35;;
28653;SDS011;24320;56.980;24.336;2023-06-22T16:15:10;6.30;;;5.13;;
28653;SDS011;24320;56.980;24.336;2023-06-22T16:17:38;5.45;;;4.78;;
28653;SDS011;24320;56.980;24.336;2023-06-22T16:20:05;7.53;;;4.97;;
28653;SDS011;24320;56.980;24.336;2023-06-22T16:22:34;6.13;;;4.90;;
28653;SDS011;24320;56.980;24.336;2023-06-22T16:25:01;5.97;;;4.70;;
28653;SDS011;24320;56.980;24.336;2023-06-22T16:27:28;7.00;;;4.95;;
28653;SDS011;24320;56.980;24.336;2023-06-22T16:29:57;6.45;;;4.80;;
28653;SDS011;24320;56.980;24.336;2023-06-22T16:32:24;5.63;;;4.70;;
28653;SDS011;24320;56.980;24.336;2023-06-22T16:34:52;6.07;;;4.90;;
28653;SDS011;24320;56.980;24.336;2023-06-22T16:37:19;7.28;;;4.70;;
28653;SDS011;24320;56.980;24.336;2023-06-22T16:39:46;6.65;;;4.07;;
28653;SDS011;24320;56.980;24.336;2023-06-22T16:42:13;6.53;;;4.65;;
28653;SDS011;24320;56.980;24.336;2023-06-22T16:44:41;5.47;;;4.55;;
28653;SDS011;24320;56.980;24.336;2023-06-22T16:47:08;6.25;;;4.88;;
28653;SDS011;24320;56.980;24.336;2023-06-22T16:49:35;8.35;;;4.60;;
28653;SDS011;24320;56.980;24.336;2023-06-22T16:52:03;6.78;;;5.13;;
28653;SDS011;24320;56.980;24.336;2023-06-22T16:54:31;8.23;;;5.03;;
28653;SDS011;24320;56.980;24.336;2023-06-22T16:57:00;6.88;;;4.80;;
28653;SDS011;24320;56.980;24.336;2023-06-22T16:59:28;6.93;;;4.53;;
28653;SDS011;24320;56.980;24.336;2023-06-22T17:01:55;6.13;;;4.63;;
28653;SDS011;24320;56.980;24.336;2023-06-22T17:04:24;6.70;;;4.65;;
28653;SDS011;24320;56.980;24.336;2023-06-22T17:07:11;7.20;;;4.95;;
28653;SDS011;24320;56.980;24.336;2023-06-22T17:09:42;5.85;;;4.20;;
28653;SDS011;24320;56.980;24.336;2023-06-22T17:12:12;7.60;;;4.80;;
28653;SDS011;24320;56.980;24.336;2023-06-22T17:14:40;6.60;;;4.38;;
28653;SDS011;24320;56.980;24.336;2023-06-22T17:17:11;7.78;;;4.68;;
28653;SDS011;24320;56.980;24.336;2023-06-22T17:19:48;7.60;;;4.40;;
28653;SDS011;24320;56.980;24.336;2023-06-22T17:22:15;6.40;;;4.38;;
28653;SDS011;24320;56.980;24.336;2023-06-22T17:24:42;9.90;;;4.50;;
28653;SDS011;24320;56.980;24.336;2023-06-22T17:27:10;8.57;;;4.45;;
28653;SDS011;24320;56.980;24.336;2023-06-22T17:29:37;6.40;;;4.35;;
28653;SDS011;24320;56.980;24.336;2023-06-22T17:32:04;6.82;;;4.50;;
28653;SDS011;24320;56.980;24.336;2023-06-22T17:34:32;6.30;;;4.10;;
28653;SDS011;24320;56.980;24.336;2023-06-22T17:37:00;6.90;;;4.80;;
28653;SDS011;24320;56.980;24.336;2023-06-22T17:39:28;8.75;;;4.68;;
28653;SDS011;24320;56.980;24.336;2023-06-22T17:41:55;10.02;;;4.28;;
28653;SDS011;24320;56.980;24.336;2023-06-22T17:44:26;5.30;;;4.28;;
28653;SDS011;24320;56.980;24.336;2023-06-22T17:46:55;8.00;;;4.22;;
28653;SDS011;24320;56.980;24.336;2023-06-22T17:49:27;7.40;;;4.40;;
28653;SDS011;24320;56.980;24.336;2023-06-22T17:51:55;7.53;;;3.90;;
28653;SDS011;24320;56.980;24.336;2023-06-22T17:54:25;8.35;;;4.47;;
28653;SDS011;24320;56.980;24.336;2023-06-22T17:59:52;10.35;;;4.35;;
28653;SDS011;24320;56.980;24.336;2023-06-22T18:02:21;5.40;;;3.90;;
28653;SDS011;24320;56.980;24.336;2023-06-22T18:04:50;6.03;;;4.00;;
28653;SDS011;24320;56.980;24.336;2023-06-22T18:07:22;6.82;;;4.03;;
28653;SDS011;24320;56.980;24.336;2023-06-22T18:09:53;5.65;;;3.80;;
28653;SDS011;24320;56.980;24.336;2023-06-22T18:12:20;6.45;;;4.47;;
28653;SDS011;24320;56.980;24.336;2023-06-22T18:14:48;5.10;;;3.97;;
28653;SDS011;24320;56.980;24.336;2023-06-22T18:17:15;7.85;;;4.40;;
28653;SDS011;24320;56.980;24.336;2023-06-22T18:19:45;4.32;;;3.50;;
28653;SDS011;24320;56.980;24.336;2023-06-22T18:22:13;5.28;;;3.92;;
28653;SDS011;24320;56.980;24.336;2023-06-22T18:24:40;8.63;;;4.50;;
28653;SDS011;24320;56.980;24.336;2023-06-22T18:27:10;7.05;;;4.05;;
28653;SDS011;24320;56.980;24.336;2023-06-22T18:29:39;5.55;;;3.95;;
28653;SDS011;24320;56.980;24.336;2023-06-22T18:32:07;5.90;;;3.85;;
28653;SDS011;24320;56.980;24.336;2023-06-22T18:34:34;8.30;;;4.40;;
28653;SDS011;24320;56.980;24.336;2023-06-22T18:37:03;10.23;;;5.00;;
28653;SDS011;24320;56.980;24.336;2023-06-22T18:39:33;8.98;;;4.72;;
28653;SDS011;24320;56.980;24.336;2023-06-22T18:42:04;9.85;;;4.72;;
28653;SDS011;24320;56.980;24.336;2023-06-22T18:44:34;13.05;;;5.75;;
28653;SDS011;24320;56.980;24.336;2023-06-22T18:47:07;7.90;;;4.85;;
28653;SDS011;24320;56.980;24.336;2023-06-22T18:54:40;16.45;;;7.85;;
28653;SDS011;24320;56.980;24.336;2023-06-22T18:57:13;10.65;;;5.75;;
28653;SDS011;24320;56.980;24.336;2023-06-22T18:59:45;8.38;;;5.30;;
28653;SDS011;24320;56.980;24.336;2023-06-22T19:05:08;6.13;;;4.22;;
28653;SDS011;24320;56.980;24.336;2023-06-22T19:15:43;6.15;;;4.15;;
28653;SDS011;24320;56.980;24.336;2023-06-22T19:20:49;10.30;;;4.90;;
28653;SDS011;24320;56.980;24.336;2023-06-22T19:25:55;7.00;;;4.28;;
28653;SDS011;24320;56.980;24.336;2023-06-22T19:28:24;7.05;;;4.70;;
28653;SDS011;24320;56.980;24.336;2023-06-22T19:30:56;9.48;;;4.32;;
28653;SDS011;24320;56.980;24.336;2023-06-22T19:33:25;6.35;;;4.50;;
28653;SDS011;24320;56.980;24.336;2023-06-22T19:35:54;8.52;;;4.97;;
28653;SDS011;24320;56.980;24.336;2023-06-22T19:38:23;5.95;;;4.45;;
28653;SDS011;24320;56.980;24.336;2023-06-22T19:40:55;7.82;;;4.43;;
28653;SDS011;24320;56.980;24.336;2023-06-22T19:43:27;9.27;;;4.75;;
28653;SDS011;24320;56.980;24.336;2023-06-22T19:45:57;8.93;;;5.00;;
28653;SDS011;24320;56.980;24.336;2023-06-22T19:48:25;10.48;;;4.85;;
28653;SDS011;24320;56.980;24.336;2023-06-22T19:51:03;8.98;;;5.57;;
28653;SDS011;24320;56.980;24.336;2023-06-22T19:53:31;8.57;;;5.25;;
28653;SDS011;24320;56.980;24.336;2023-06-22T19:55:58;11.05;;;5.32;;
28653;SDS011;24320;56.980;24.336;2023-06-22T19:58:30;7.95;;;5.18;;
28653;SDS011;24320;56.980;24.336;2023-06-22T20:00:59;9.65;;;5.13;;
28653;SDS011;24320;56.980;24.336;2023-06-22T20:03:27;9.40;;;5.45;;
28653;SDS011;24320;56.980;24.336;2023-06-22T20:06:12;9.27;;;6.15;;
28653;SDS011;24320;56.980;24.336;2023-06-22T20:08:47;11.68;;;6.28;;
28653;SDS011;24320;56.980;24.336;2023-06-22T20:11:23;14.68;;;6.25;;
28653;SDS011;24320;56.980;24.336;2023-06-22T20:13:52;9.13;;;5.55;;
28653;SDS011;24320;56.980;24.336;2023-06-22T20:16:30;11.85;;;6.63;;
28653;SDS011;24320;56.980;24.336;2023-06-22T20:19:10;14.20;;;6.75;;
28653;SDS011;24320;56.980;24.336;2023-06-22T20:21:39;10.35;;;6.90;;
28653;SDS011;24320;56.980;24.336;2023-06-22T20:24:08;14.70;;;8.35;;
28653;SDS011;24320;56.980;24.336;2023-06-22T20:29:27;17.50;;;10.07;;
28653;SDS011;24320;56.980;24.336;2023-06-22T20:32:07;15.68;;;10.15;;